Time;durP1;ratioP1;P1;durP2;ratioP2;P2;SDS_P1;SDS_P2;PMS_P1;PMS_P2;Temp;Humidity;BMP_temperature;BMP_pressure;BME280_temperature;BME280_humidity;BME280_pressure;Samples;Min_cycle;Max_cycle;Signal;HPM_P1;HPM_P2
2023/04/17 00:01:41;;;;;;;41.88;24.35;;;10.90;93.20;;;;;;5116883;28;20036;-68
2023/04/17 00:04:11;;;;;;;38.92;24.05;;;10.90;92.40;;;;;;5116746;28;20105;-68
2023/04/17 00:06:38;;;;;;;39.75;24.27;;;10.90;91.80;;;;;;5117507;28;20036;-69
2023/04/17 00:09:04;;;;;;;46.63;24.63;;;10.90;92.30;;;;;;5116810;28;20035;-68
2023/04/17 00:11:30;;;;;;;40.78;23.15;;;11.00;91.50;;;;;;5117445;28;20299;-69
2023/04/17 00:13:56;;;;;;;38.72;23.90;;;11.00;92.00;;;;;;5099625;28;20032;-68
2023/04/17 00:16:22;;;;;;;40.35;23.33;;;11.00;92.30;;;;;;5117369;28;20034;-68
2023/04/17 00:18:48;;;;;;;41.33;25.70;;;11.00;91.70;;;;;;5099623;28;20043;-68
2023/04/17 00:21:14;;;;;;;42.75;25.27;;;11.10;92.40;;;;;;5117301;28;20082;-68
2023/04/17 00:23:40;;;;;;;38.85;23.85;;;11.10;91.90;;;;;;5099683;28;20503;-68
2023/04/17 00:26:06;;;;;;;47.90;25.75;;;11.00;92.10;;;;;;5116546;28;20057;-68
2023/04/17 00:28:32;;;;;;;45.08;25.75;;;11.20;91.50;;;;;;5116586;28;20298;-69
2023/04/17 00:30:58;;;;;;;42.80;25.30;;;11.30;85.00;;;;;;5117450;28;20047;-69
2023/04/17 00:33:24;;;;;;;46.30;26.10;;;11.20;86.70;;;;;;5116765;28;20032;-69
2023/04/17 00:35:50;;;;;;;42.25;25.50;;;11.10;90.00;;;;;;5116406;28;20032;-69
2023/04/17 00:38:16;;;;;;;42.13;23.92;;;11.10;90.50;;;;;;5082705;28;20028;-69
2023/04/17 00:40:44;;;;;;;43.90;25.42;;;11.00;90.60;;;;;;5099618;28;20028;-69
2023/04/17 00:43:10;;;;;;;45.50;25.45;;;11.00;91.60;;;;;;5117075;28;20071;-69
2023/04/17 00:45:36;;;;;;;41.03;24.88;;;11.00;91.10;;;;;;5099458;28;20035;-69
2023/04/17 00:48:05;;;;;;;43.83;26.98;;;11.00;91.70;;;;;;5117063;28;20291;-68
2023/04/17 00:50:32;;;;;;;45.08;26.67;;;11.10;91.50;;;;;;5116289;28;20036;-69
2023/04/17 00:52:58;;;;;;;43.83;25.40;;;11.00;92.00;;;;;;5117006;28;20028;-69
2023/04/17 00:55:26;;;;;;;47.78;27.63;;;11.00;93.20;;;;;;5116208;28;20032;-69
2023/04/17 00:57:51;;;;;;;41.70;26.17;;;11.00;92.80;;;;;;5117089;28;20378;-69
2023/04/17 01:00:18;;;;;;;47.85;27.25;;;11.00;92.30;;;;;;5120781;28;20106;-69
2023/04/17 01:02:45;;;;;;;48.45;26.92;;;11.00;92.40;;;;;;5120806;28;20055;-69
2023/04/17 01:05:11;;;;;;;50.22;28.92;;;11.10;91.70;;;;;;5119939;28;20031;-69
2023/04/17 01:07:38;;;;;;;52.13;30.70;;;11.10;91.80;;;;;;5102915;28;20040;-68
2023/04/17 01:10:05;;;;;;;51.88;29.67;;;11.20;88.60;;;;;;5120665;28;20039;-68
2023/04/17 01:12:31;;;;;;;49.20;28.52;;;11.20;90.00;;;;;;5119749;28;20127;-69
2023/04/17 01:14:57;;;;;;;48.22;28.50;;;11.20;89.10;;;;;;5119662;28;20119;-69
2023/04/17 01:17:25;;;;;;;48.40;27.70;;;11.00;90.00;;;;;;5119769;28;20032;-69
2023/04/17 01:19:51;;;;;;;47.03;27.45;;;11.00;91.40;;;;;;5120439;28;20043;-68
2023/04/17 01:22:18;;;;;;;41.72;25.00;;;11.00;92.80;;;;;;5120378;28;20496;-69
2023/04/17 01:24:44;;;;;;;47.47;25.80;;;10.90;92.00;;;;;;5119522;28;20031;-68
2023/04/17 01:27:14;;;;;;;42.65;25.00;;;10.90;91.10;;;;;;5120540;28;20039;-68
2023/04/17 01:29:42;;;;;;;40.25;23.63;;;10.80;90.70;;;;;;5119483;28;20399;-69
2023/04/17 01:32:08;;;;;;;41.22;25.02;;;10.70;90.90;;;;;;5119447;28;20034;-69
2023/04/17 01:34:35;;;;;;;39.40;23.50;;;10.70;91.70;;;;;;5102423;28;20119;-68
2023/04/17 01:37:02;;;;;;;39.05;23.60;;;10.70;90.90;;;;;;5119455;28;20035;-69
2023/04/17 01:39:27;;;;;;;37.25;22.85;;;10.80;91.40;;;;;;5120142;28;20388;-69
2023/04/17 01:41:53;;;;;;;39.72;24.38;;;10.70;92.30;;;;;;5102258;28;20079;-68
2023/04/17 01:44:20;;;;;;;41.63;25.65;;;10.70;93.20;;;;;;5119332;28;20122;-69
2023/04/17 01:46:46;;;;;;;42.88;24.95;;;10.80;91.90;;;;;;5119323;28;20107;-68
2023/04/17 01:49:14;;;;;;;44.45;26.33;;;10.80;91.60;;;;;;5085838;28;20032;-68
2023/04/17 01:51:40;;;;;;;42.80;24.40;;;10.80;91.40;;;;;;5119919;28;20027;-68
2023/04/17 01:54:06;;;;;;;41.00;25.73;;;10.80;92.20;;;;;;5118955;28;20050;-68
2023/04/17 01:56:31;;;;;;;44.50;25.48;;;10.80;93.10;;;;;;5119846;27;20294;-68
2023/04/17 01:58:57;;;;;;;43.40;25.38;;;10.80;93.20;;;;;;5119721;28;20081;-68
2023/04/17 02:01:23;;;;;;;40.95;24.35;;;10.80;92.70;;;;;;5085144;28;20039;-69
2023/04/17 02:03:49;;;;;;;42.92;25.23;;;10.80;92.40;;;;;;5119515;28;20351;-69
2023/04/17 02:06:15;;;;;;;46.58;25.95;;;10.90;92.30;;;;;;5101899;28;20031;-69
2023/04/17 02:08:43;;;;;;;47.72;26.92;;;10.90;93.30;;;;;;5118752;28;20016;-68
2023/04/17 02:11:09;;;;;;;50.22;26.25;;;10.90;93.80;;;;;;5067712;28;20062;-69
2023/04/17 02:13:35;;;;;;;51.75;27.48;;;10.90;94.60;;;;;;5119421;28;20023;-68
2023/04/17 02:16:02;;;;;;;49.03;27.38;;;10.80;95.20;;;;;;5118492;28;20039;-69
2023/04/17 02:18:28;;;;;;;43.03;26.80;;;10.80;96.90;;;;;;5118837;28;20036;-69
2023/04/17 02:20:54;;;;;;;48.65;26.60;;;10.70;97.40;;;;;;5084810;28;20068;-69
2023/04/17 02:23:20;;;;;;;49.63;27.30;;;10.70;97.50;;;;;;5118806;28;20063;-69
2023/04/17 02:25:46;;;;;;;46.03;26.88;;;10.80;97.00;;;;;;5118793;28;20036;-69
2023/04/17 02:28:14;;;;;;;52.15;28.73;;;10.70;94.80;;;;;;5118417;28;20031;-69
2023/04/17 02:30:40;;;;;;;54.05;28.02;;;10.70;95.90;;;;;;5084629;28;20310;-68
2023/04/17 02:33:06;;;;;;;48.97;28.00;;;10.60;95.70;;;;;;5101381;28;20100;-68
2023/04/17 02:35:33;;;;;;;52.17;29.30;;;10.60;97.30;;;;;;5101384;28;20040;-68
2023/04/17 02:37:59;;;;;;;55.00;29.65;;;10.60;97.50;;;;;;5118137;27;20024;-69
2023/04/17 02:40:26;;;;;;;52.08;29.88;;;10.60;97.20;;;;;;5101297;28;20034;-69
2023/04/17 02:43:00;;;;;;;60.13;33.20;;;10.60;97.00;;;;;;5117910;28;20063;-69
2023/04/17 02:45:26;;;;;;;62.53;32.92;;;10.80;96.10;;;;;;5101197;28;20035;-70
2023/04/17 02:47:52;;;;;;;53.40;31.23;;;10.80;95.10;;;;;;5118148;28;20444;-68
2023/04/17 02:50:18;;;;;;;57.33;32.00;;;10.80;96.30;;;;;;5118155;28;20043;-68
2023/04/17 02:53:04;;;;;;;53.80;29.25;;;10.80;96.70;;;;;;5118183;28;20311;-69
2023/04/17 02:55:30;;;;;;;46.72;26.23;;;10.70;96.70;;;;;;5117728;28;20032;-68
2023/04/17 02:57:56;;;;;;;42.15;24.35;;;10.70;95.80;;;;;;5117782;28;20348;-68
2023/04/17 03:00:23;;;;;;;45.13;25.63;;;10.70;95.20;;;;;;5118516;28;20024;-68
2023/04/17 03:02:48;;;;;;;40.40;24.70;;;10.70;94.80;;;;;;5100834;28;20027;-68
2023/04/17 03:05:15;;;;;;;42.75;25.98;;;10.70;95.10;;;;;;5118846;28;20295;-68
2023/04/17 03:07:41;;;;;;;40.03;24.98;;;10.70;95.00;;;;;;5083920;28;20032;-68
2023/04/17 03:10:08;;;;;;;44.50;25.65;;;10.70;94.10;;;;;;5117799;28;20196;-68
2023/04/17 03:12:34;;;;;;;42.75;25.92;;;10.70;94.30;;;;;;5117455;28;20035;-68
2023/04/17 03:15:01;;;;;;;45.28;25.65;;;10.70;94.70;;;;;;5117557;28;20283;-68
2023/04/17 03:17:27;;;;;;;46.83;26.98;;;10.70;93.70;;;;;;5117486;28;20031;-68
2023/04/17 03:19:53;;;;;;;45.33;27.20;;;10.60;94.80;;;;;;5117430;28;20280;-68
2023/04/17 03:22:19;;;;;;;47.80;27.75;;;10.70;94.60;;;;;;5116578;28;20153;-68
2023/04/17 03:24:46;;;;;;;41.75;26.20;;;10.60;95.60;;;;;;5117283;28;20043;-68
2023/04/17 03:27:12;;;;;;;48.10;27.35;;;10.50;97.10;;;;;;5117264;28;20093;-68
2023/04/17 03:29:40;;;;;;;47.53;26.83;;;10.60;97.70;;;;;;5084232;28;20028;-68
2023/04/17 03:32:07;;;;;;;48.50;27.08;;;10.50;97.30;;;;;;5117133;28;20113;-68
2023/04/17 03:34:33;;;;;;;47.50;27.38;;;10.60;97.90;;;;;;5117050;28;20036;-68
2023/04/17 03:36:59;;;;;;;47.17;26.65;;;10.60;98.20;;;;;;5117106;28;20030;-68
2023/04/17 03:39:25;;;;;;;43.88;26.42;;;10.50;97.90;;;;;;5117089;28;20470;-68
2023/04/17 03:41:51;;;;;;;45.13;26.60;;;10.60;98.40;;;;;;5116859;28;20298;-68
2023/04/17 03:44:18;;;;;;;45.42;27.60;;;10.60;97.10;;;;;;5117035;28;20122;-68
2023/04/17 03:46:44;;;;;;;44.40;26.73;;;10.70;97.10;;;;;;5116941;28;20035;-69
2023/04/17 03:49:10;;;;;;;39.50;26.30;;;10.70;97.00;;;;;;5083326;28;20056;-68
2023/04/17 03:51:37;;;;;;;45.42;27.45;;;10.70;97.20;;;;;;5100126;28;20095;-68
2023/04/17 03:54:11;;;;;;;46.03;27.65;;;10.70;96.80;;;;;;5116782;28;20307;-68
2023/04/17 03:56:38;;;;;;;47.45;27.92;;;10.70;97.60;;;;;;5100052;28;20324;-68
2023/04/17 03:59:04;;;;;;;45.45;27.33;;;10.80;96.60;;;;;;5099853;28;20032;-68
2023/04/17 04:01:37;;;;;;;46.17;27.33;;;10.80;96.70;;;;;;5100475;28;20030;-67
2023/04/17 04:04:13;;;;;;;43.20;26.52;;;10.80;95.90;;;;;;5116816;28;20039;-67
2023/04/17 04:06:41;;;;;;;46.05;27.85;;;10.70;96.70;;;;;;5099833;28;20280;-67
2023/04/17 04:09:09;;;;;;;46.95;27.98;;;10.70;96.10;;;;;;5100395;28;20028;-67
2023/04/17 04:11:35;;;;;;;46.25;27.85;;;10.60;96.80;;;;;;5099850;28;20043;-67
2023/04/17 04:14:01;;;;;;;47.67;28.20;;;10.70;97.40;;;;;;5117101;28;20322;-67
2023/04/17 04:16:27;;;;;;;47.08;29.15;;;10.70;97.10;;;;;;5099712;28;20329;-67
2023/04/17 04:19:02;;;;;;;48.50;29.08;;;10.70;96.60;;;;;;5116681;28;20157;-68
2023/04/17 04:21:29;;;;;;;54.97;30.38;;;10.70;97.40;;;;;;5117571;28;20111;-67
2023/04/17 04:23:55;;;;;;;52.33;30.20;;;10.80;97.40;;;;;;5117252;28;20038;-67
2023/04/17 04:26:23;;;;;;;51.85;29.40;;;10.70;97.60;;;;;;5117212;28;20019;-67
2023/04/17 04:28:52;;;;;;;50.58;29.10;;;10.70;97.10;;;;;;5100164;28;20032;-67
2023/04/17 04:31:45;;;;;;;50.17;28.10;;;10.70;98.10;;;;;;5111365;28;20337;-67
2023/04/17 04:34:12;;;;;;;47.00;27.33;;;10.70;96.90;;;;;;5119425;28;20093;-67
2023/04/17 04:36:48;;;;;;;44.13;25.67;;;10.70;97.10;;;;;;5120506;28;20118;-67
2023/04/17 04:39:22;;;;;;;40.42;25.45;;;10.70;95.00;;;;;;5120375;28;20062;-67
2023/04/17 04:41:51;;;;;;;44.55;26.05;;;10.50;95.90;;;;;;5121003;28;20578;-67
2023/04/17 04:44:19;;;;;;;42.63;23.95;;;10.40;96.70;;;;;;5121102;28;20039;-67
2023/04/17 04:46:47;;;;;;;37.85;23.65;;;10.50;95.60;;;;;;5103548;28;20031;-67
2023/04/17 04:49:13;;;;;;;40.70;23.38;;;10.60;94.60;;;;;;5120241;28;20042;-67
2023/04/17 04:51:39;;;;;;;33.55;21.13;;;10.60;95.60;;;;;;5103059;28;20457;-67
2023/04/17 04:54:07;;;;;;;39.67;22.50;;;10.60;94.80;;;;;;5119941;28;20053;-67
2023/04/17 04:56:43;;;;;;;;;;;10.60;94.00;;;;;;5120467;28;20032;-67
2023/04/17 04:59:10;;;;;;;34.47;20.40;;;10.60;92.80;;;;;;5120078;28;19947;-67
2023/04/17 05:01:38;;;;;;;36.10;20.10;;;10.50;93.30;;;;;;5119670;28;20088;-68
2023/04/17 05:04:05;;;;;;;33.83;21.73;;;10.50;92.90;;;;;;5069994;28;20032;-67
2023/04/17 05:06:32;;;;;;;33.78;20.75;;;10.40;93.00;;;;;;5119818;28;20303;-67
2023/04/17 05:09:01;;;;;;;32.75;19.88;;;10.30;94.30;;;;;;5120524;28;20077;-67
2023/04/17 05:11:28;;;;;;;31.98;20.45;;;10.40;94.70;;;;;;5102806;28;20028;-67
2023/04/17 05:13:55;;;;;;;33.08;20.60;;;10.30;94.80;;;;;;5119410;28;20047;-67
2023/04/17 05:16:27;;;;;;;34.40;20.77;;;10.30;94.60;;;;;;5103574;28;20042;-66
2023/04/17 05:18:54;;;;;;;33.60;20.00;;;10.40;95.10;;;;;;5102661;28;20035;-67
2023/04/17 05:21:39;;;;;;;33.03;19.52;;;10.50;94.00;;;;;;5091269;28;20317;-67
2023/04/17 05:24:06;;;;;;;35.65;19.98;;;10.50;93.40;;;;;;5069854;28;20089;-67
2023/04/17 05:26:32;;;;;;;31.13;19.35;;;10.50;92.60;;;;;;5102538;28;20024;-68
2023/04/17 05:28:58;;;;;;;32.13;19.98;;;10.50;92.80;;;;;;5119627;28;20054;-67
2023/04/17 05:31:28;;;;;;;31.58;20.08;;;10.50;93.90;;;;;;5103542;28;20028;-68
2023/04/17 05:33:55;;;;;;;35.33;20.42;;;10.60;91.60;;;;;;5119272;28;20378;-68
2023/04/17 05:36:21;;;;;;;34.17;21.02;;;10.60;91.60;;;;;;5102426;28;20097;-69
2023/04/17 05:38:48;;;;;;;33.08;20.70;;;10.50;93.10;;;;;;5102572;28;20028;-67
2023/04/17 05:41:14;;;;;;;31.95;20.02;;;10.40;93.00;;;;;;5085351;28;20028;-67
2023/04/17 05:43:41;;;;;;;30.67;19.45;;;10.50;92.80;;;;;;5118981;28;20131;-67
2023/04/17 05:46:07;;;;;;;32.95;20.73;;;10.50;92.40;;;;;;5084598;28;20115;-67
2023/04/17 05:48:33;;;;;;;37.50;21.10;;;10.60;91.20;;;;;;5119357;28;20071;-68
2023/04/17 05:50:59;;;;;;;32.58;20.33;;;10.70;90.90;;;;;;5085204;28;20172;-67
2023/04/17 05:53:26;;;;;;;36.47;21.55;;;10.70;91.40;;;;;;5102198;28;20028;-67
2023/04/17 05:55:55;;;;;;;36.40;20.80;;;10.60;92.60;;;;;;5102503;28;20046;-68
2023/04/17 05:58:21;;;;;;;35.55;21.48;;;10.60;92.70;;;;;;5101989;28;20024;-67
2023/04/17 06:00:47;;;;;;;34.47;20.77;;;10.60;94.30;;;;;;5118816;28;20032;-67
2023/04/17 06:03:16;;;;;;;36.53;21.15;;;10.60;94.40;;;;;;5085812;28;20042;-67
2023/04/17 06:05:45;;;;;;;35.83;21.20;;;10.80;91.40;;;;;;5118593;28;20043;-68
2023/04/17 06:08:11;;;;;;;34.53;20.65;;;10.70;92.10;;;;;;5101981;28;20391;-67
2023/04/17 06:10:37;;;;;;;33.10;19.95;;;10.60;92.90;;;;;;5118705;28;20104;-66
2023/04/17 06:13:03;;;;;;;33.22;19.73;;;10.70;92.90;;;;;;5101551;28;20047;-67
2023/04/17 06:15:29;;;;;;;33.08;20.38;;;10.70;93.00;;;;;;5118385;28;20035;-67
2023/04/17 06:17:55;;;;;;;34.75;20.45;;;10.70;90.90;;;;;;5118389;28;20049;-67
2023/04/17 06:20:21;;;;;;;35.05;22.00;;;10.80;89.00;;;;;;5101425;28;20020;-67
2023/04/17 06:22:46;;;;;;;34.97;21.65;;;10.90;85.50;;;;;;5101457;28;20046;-67
2023/04/17 06:25:12;;;;;;;32.45;20.00;;;11.00;84.80;;;;;;5101233;28;20035;-67
2023/04/17 06:27:39;;;;;;;32.35;21.13;;;11.20;86.50;;;;;;5084810;28;20429;-67
2023/04/17 06:30:05;;;;;;;32.05;21.17;;;11.10;82.70;;;;;;5101263;28;20032;-67
2023/04/17 06:32:42;;;;;;;34.10;20.98;;;11.10;85.10;;;;;;5086373;28;20028;-67
2023/04/17 06:35:10;;;;;;;31.50;20.70;;;11.10;81.60;;;;;;5101263;28;20039;-67
2023/04/17 06:37:42;;;;;;;34.00;20.65;;;11.10;83.60;;;;;;5118042;28;20066;-67
2023/04/17 06:40:08;;;;;;;34.40;20.83;;;11.00;82.40;;;;;;5083956;28;20047;-67
2023/04/17 06:42:34;;;;;;;36.13;20.95;;;11.00;86.80;;;;;;5117566;28;20093;-67
2023/04/17 06:45:01;;;;;;;32.05;20.38;;;11.00;87.40;;;;;;5084444;28;20043;-66
2023/04/17 06:47:27;;;;;;;31.40;21.23;;;11.10;85.80;;;;;;5118436;28;20307;-62
2023/04/17 06:49:53;;;;;;;32.55;21.42;;;11.20;85.90;;;;;;5118300;28;20073;-68
2023/04/17 06:52:20;;;;;;;32.53;20.95;;;11.50;88.60;;;;;;5100671;28;20426;-66
2023/04/17 06:54:47;;;;;;;37.80;20.63;;;11.90;75.70;;;;;;5118054;28;20099;-69
2023/04/17 06:57:12;;;;;;;35.65;20.48;;;12.00;69.60;;;;;;5100282;28;20111;-63
2023/04/17 06:59:39;;;;;;;34.25;20.02;;;11.90;59.20;;;;;;5118143;28;20039;-62
2023/04/17 07:02:05;;;;;;;30.38;18.73;;;11.50;71.10;;;;;;5118315;28;20328;-66
2023/04/17 07:04:30;;;;;;;29.17;18.77;;;11.40;82.60;;;;;;5100528;28;20032;-70
2023/04/17 07:06:57;;;;;;;26.70;18.10;;;11.20;82.00;;;;;;5117406;28;20028;-64
2023/04/17 07:09:24;;;;;;;30.52;18.73;;;11.60;73.20;;;;;;5117250;28;20119;-64
2023/04/17 07:11:50;;;;;;;35.13;19.50;;;11.50;70.00;;;;;;5117463;28;20036;-62
2023/04/17 07:14:16;;;;;;;35.20;20.45;;;11.40;80.10;;;;;;5117039;28;20047;-67
2023/04/17 07:16:42;;;;;;;33.92;19.33;;;11.50;74.70;;;;;;5118050;28;20028;-59
2023/04/17 07:19:08;;;;;;;32.33;19.08;;;11.70;73.40;;;;;;5117142;28;20028;-63
2023/04/17 07:21:34;;;;;;;34.53;20.10;;;11.90;74.60;;;;;;5117110;28;20385;-61
2023/04/17 07:23:59;;;;;;;43.25;20.80;;;11.80;69.90;;;;;;5117823;28;20142;-62
2023/04/17 07:26:25;;;;;;;30.10;20.17;;;12.00;72.10;;;;;;5117192;28;20098;-65
2023/04/17 07:28:51;;;;;;;39.33;20.00;;;11.90;66.40;;;;;;5116996;28;20080;-63
2023/04/17 07:31:17;;;;;;;36.67;20.75;;;12.00;75.10;;;;;;5116873;28;20036;-62
2023/04/17 07:33:43;;;;;;;30.05;19.75;;;11.90;82.90;;;;;;5083087;28;20284;-63
2023/04/17 07:36:10;;;;;;;28.48;19.75;;;11.70;63.80;;;;;;5116913;28;20036;-63
2023/04/17 07:38:36;;;;;;;30.30;20.25;;;11.80;80.00;;;;;;5116739;28;20080;-62
2023/04/17 07:41:02;;;;;;;30.08;19.98;;;11.80;67.10;;;;;;5083125;28;20089;-63
2023/04/17 10:15:59;;;;;;;30.23;22.48;;;13.60;1.00;;;;;;4522051;27;1348552;-61
2023/04/17 10:18:25;;;;;;;34.25;23.25;;;13.70;8.10;;;;;;5093360;28;20024;-62
2023/04/17 10:20:52;;;;;;;32.40;22.75;;;13.70;1.00;;;;;;5076125;28;20177;-63
2023/04/17 10:23:32;;;;;;;32.35;22.55;;;13.70;2.10;;;;;;5075672;28;20043;-63
2023/04/17 10:26:33;;;;;;;34.33;22.48;;;13.90;3.50;;;;;;5075633;28;20043;-61
2023/04/17 10:28:59;;;;;;;32.22;21.52;;;13.90;4.60;;;;;;5075645;28;20029;-62
2023/04/17 10:32:04;;;;;;;31.05;21.67;;;13.80;12.80;;;;;;5069495;28;20469;-63
2023/04/17 10:34:34;;;;;;;28.90;20.98;;;14.00;17.10;;;;;;5025552;28;20060;-63
2023/04/17 10:37:00;;;;;;;28.48;19.85;;;14.00;1.00;;;;;;5062304;28;20413;-63
2023/04/17 10:39:26;;;;;;;28.50;21.10;;;14.00;7.00;;;;;;5045550;28;20108;-62
2023/04/17 10:42:02;;;;;;;28.95;21.23;;;14.20;1.00;;;;;;5062203;28;20025;-59
2023/04/17 10:44:32;;;;;;;32.22;21.58;;;14.60;1.00;;;;;;5062099;28;20032;-63
2023/04/17 10:47:04;;;;;;;26.95;20.27;;;14.60;1.00;;;;;;5061999;28;20035;-63
2023/04/17 10:49:49;;;;;;;28.02;20.67;;;14.70;1.00;;;;;;5062841;28;20305;-62
2023/04/17 10:52:39;;;;;;;25.35;19.48;;;15.10;1.00;;;;;;5079248;28;20039;-63
2023/04/17 10:55:20;;;;;;;25.58;19.48;;;15.60;1.00;;;;;;5061949;28;20035;-62
2023/04/17 10:58:02;;;;;;;26.42;19.48;;;15.50;1.00;;;;;;5061976;28;20037;-64
2023/04/17 11:00:35;;;;;;;24.77;19.33;;;15.20;1.00;;;;;;5079061;28;20112;-62
2023/04/17 11:03:02;;;;;;;27.30;19.25;;;15.30;1.00;;;;;;5079101;28;20039;-63
2023/04/17 11:05:30;;;;;;;25.17;18.70;;;15.00;1.00;;;;;;5061859;28;20036;-63
2023/04/17 11:07:57;;;;;;;23.05;17.98;;;15.50;1.00;;;;;;5061527;28;20300;-63
2023/04/17 11:10:22;;;;;;;24.98;19.35;;;15.80;1.00;;;;;;5062078;28;20068;-63
2023/04/17 11:12:55;;;;;;;33.05;21.35;;;15.90;1.00;;;;;;5061836;28;20439;-63
2023/04/17 11:15:24;;;;;;;;;;;16.10;1.00;;;;;;5079588;28;20462;-64
2023/04/17 11:17:50;;;;;;;25.02;19.85;;;16.60;1.00;;;;;;5061220;28;19916;-63
2023/04/17 11:20:20;;;;;;;25.48;18.08;;;16.60;1.00;;;;;;5061481;28;20465;-63
2023/04/17 11:22:46;;;;;;;23.08;18.80;;;17.00;1.00;;;;;;5061279;28;20028;-63
2023/04/17 11:25:21;;;;;;;26.35;19.20;;;17.50;1.00;;;;;;5044923;28;20270;-63
2023/04/17 11:27:50;;;;;;;23.15;19.02;;;17.70;1.00;;;;;;5078535;28;20033;-63
2023/04/17 11:30:27;;;;;;;21.60;17.85;;;16.70;1.00;;;;;;5078604;28;20081;-63
2023/04/17 11:32:53;;;;;;;23.73;17.25;;;16.40;1.00;;;;;;5078422;28;20036;-63
2023/04/17 11:35:26;;;;;;;23.98;17.67;;;16.80;1.00;;;;;;5078408;28;20032;-63
2023/04/17 11:38:13;;;;;;;23.30;18.70;;;17.20;1.00;;;;;;5078748;28;20041;-64
2023/04/17 11:40:44;;;;;;;22.90;18.42;;;17.40;1.00;;;;;;5078094;28;20055;-64
2023/04/17 11:43:11;;;;;;;23.98;18.55;;;17.50;1.00;;;;;;5077463;28;20116;-63
2023/04/17 11:45:39;;;;;;;26.60;19.48;;;17.60;1.00;;;;;;5044509;28;20305;-64
2023/04/17 11:48:08;;;;;;;25.45;19.08;;;17.50;1.00;;;;;;5078157;28;20024;-63
2023/04/17 11:50:34;;;;;;;23.92;18.98;;;17.20;1.00;;;;;;5078113;28;20308;-64
2023/04/17 11:53:02;;;;;;;22.15;16.88;;;17.00;1.00;;;;;;5060917;28;20052;-63
2023/04/17 11:55:32;;;;;;;24.25;18.20;;;16.90;1.00;;;;;;5044772;28;20032;-64
2023/04/17 11:57:59;;;;;;;21.08;16.50;;;17.10;1.00;;;;;;5078166;28;20041;-63
2023/04/17 12:00:28;;;;;;;21.30;15.95;;;16.50;1.00;;;;;;5043772;28;20117;-63
2023/04/17 12:03:01;;;;;;;21.20;15.73;;;16.60;1.00;;;;;;5077816;28;20301;-63
2023/04/17 12:05:29;;;;;;;18.75;15.80;;;17.10;1.00;;;;;;5060767;28;20411;-63
2023/04/17 12:08:06;;;;;;;18.58;15.27;;;18.60;99.90;;;;;;5077693;28;20297;-63
2023/04/17 12:10:41;;;;;;;20.90;16.88;;;19.70;1.00;;;;;;5077730;28;20407;-64
2023/04/17 12:13:08;;;;;;;22.65;15.25;;;21.20;1.00;;;;;;5044072;28;20290;-65
2023/04/17 12:15:34;;;;;;;17.80;14.50;;;21.60;1.00;;;;;;5077414;28;20301;-64
2023/04/17 12:18:04;;;;;;;18.15;14.13;;;21.10;1.00;;;;;;5060122;28;20032;-63
2023/04/17 12:20:35;;;;;;;15.85;13.95;;;20.50;1.00;;;;;;5060044;28;20032;-64
2023/04/17 12:23:01;;;;;;;19.73;14.38;;;21.10;1.00;;;;;;5077409;28;20097;-64
2023/04/17 12:25:27;;;;;;;16.58;14.63;;;21.60;31.90;;;;;;5077440;28;20020;-64
2023/04/17 12:27:54;;;;;;;18.02;14.70;;;21.00;1.00;;;;;;5043365;28;20123;-64
2023/04/17 12:30:20;;;;;;;18.38;15.15;;;21.00;1.00;;;;;;5059810;28;20032;-64
2023/04/17 12:32:47;;;;;;;18.30;16.05;;;21.10;1.00;;;;;;5059918;28;20052;-63
2023/04/17 12:35:14;;;;;;;18.80;15.52;;;20.20;99.90;;;;;;5077252;28;20384;-64
2023/04/17 12:37:47;;;;;;;19.42;15.45;;;19.40;1.00;;;;;;5077255;28;20028;-64
2023/04/17 12:40:14;;;;;;;20.63;15.98;;;19.40;1.00;;;;;;5043109;28;20308;-64
2023/04/17 12:42:40;;;;;;;18.05;16.08;;;19.40;99.90;;;;;;5077120;28;20348;-63
2023/04/17 12:45:06;;;;;;;19.08;15.48;;;19.90;99.90;;;;;;5077232;28;20024;-63
2023/04/17 12:47:32;;;;;;;16.75;14.15;;;20.70;99.90;;;;;;5077057;28;20055;-64
2023/04/17 12:49:58;;;;;;;17.75;13.85;;;21.50;1.00;;;;;;5026764;28;20029;-64
2023/04/17 12:52:24;;;;;;;18.13;14.68;;;20.20;1.00;;;;;;5059545;28;20040;-64
2023/04/17 12:54:51;;;;;;;19.85;14.52;;;21.10;57.50;;;;;;5059501;28;20415;-64
2023/04/17 12:57:17;;;;;;;16.63;14.90;;;22.00;1.00;;;;;;5060119;28;20421;-65
2023/04/17 12:59:43;;;;;;;16.15;14.32;;;21.60;99.90;;;;;;5059628;28;20048;-65
2023/04/17 13:02:09;;;;;;;17.15;14.50;;;21.00;1.00;;;;;;5059641;28;20032;-64
2023/04/17 13:04:35;;;;;;;19.02;15.10;;;20.30;99.90;;;;;;5059955;28;20043;-64
2023/04/17 13:07:00;;;;;;;19.15;14.70;;;19.60;99.90;;;;;;5076793;28;20035;-64
2023/04/17 13:09:26;;;;;;;16.08;14.25;;;19.90;99.90;;;;;;5060016;28;20090;-63
2023/04/17 13:11:52;;;;;;;18.48;14.45;;;19.60;1.00;;;;;;5043120;28;20113;-63
2023/04/17 13:14:18;;;;;;;17.20;13.82;;;20.40;1.00;;;;;;5077021;28;20047;-63
2023/04/17 13:16:45;;;;;;;16.83;14.57;;;21.50;99.90;;;;;;5076687;28;20049;-64
2023/04/17 13:19:10;;;;;;;19.52;14.95;;;22.60;99.90;;;;;;5042583;28;20125;-64
2023/04/17 13:21:36;;;;;;;16.55;14.60;;;22.40;99.90;;;;;;5042577;28;20029;-61
2023/04/17 13:24:02;;;;;;;16.90;14.35;;;22.40;1.00;;;;;;5059383;28;20024;-61
2023/04/17 13:26:28;;;;;;;18.60;13.73;;;22.00;1.00;;;;;;5059076;28;20033;-62
2023/04/17 13:28:54;;;;;;;17.75;13.93;;;22.00;1.00;;;;;;5042740;28;20037;-62
2023/04/17 13:31:20;;;;;;;19.13;13.98;;;22.90;99.90;;;;;;5059788;28;20028;-62
2023/04/17 13:33:45;;;;;;;16.88;13.95;;;23.40;1.00;;;;;;5059253;28;20064;-62
2023/04/17 13:36:11;;;;;;;16.42;14.05;;;25.00;99.90;;;;;;5059088;28;20115;-63
2023/04/17 13:38:37;;;;;;;16.95;14.73;;;25.40;1.00;;;;;;5042664;28;20040;-64
2023/04/17 13:41:03;;;;;;;18.23;15.00;;;24.40;1.00;;;;;;5042413;28;20040;-64
2023/04/17 13:43:28;;;;;;;15.80;13.95;;;23.70;1.00;;;;;;5076577;28;20373;-64
2023/04/17 13:45:55;;;;;;;16.27;13.30;;;22.80;99.90;;;;;;5076464;28;20049;-64
2023/04/17 13:48:21;;;;;;;15.48;13.52;;;22.20;1.00;;;;;;5076751;28;20036;-64
2023/04/17 13:50:47;;;;;;;20.73;15.63;;;21.60;1.00;;;;;;5076510;28;20048;-63
2023/04/17 13:53:13;;;;;;;19.42;15.73;;;21.80;99.90;;;;;;5058941;28;20029;-63
2023/04/17 13:55:38;;;;;;;18.02;14.82;;;22.50;99.90;;;;;;5076378;28;20052;-63
2023/04/17 13:58:04;;;;;;;17.33;14.32;;;23.80;1.00;;;;;;5076281;28;20468;-63
2023/04/17 14:00:30;;;;;;;15.23;13.73;;;24.90;40.60;;;;;;5059413;28;20033;-63
2023/04/17 14:02:56;;;;;;;15.55;13.93;;;24.50;1.00;;;;;;5025916;28;20033;-63
2023/04/17 14:05:22;;;;;;;14.43;12.93;;;24.20;1.00;;;;;;5059063;28;20024;-63
2023/04/17 14:07:47;;;;;;;14.70;13.23;;;24.40;1.00;;;;;;5045239;28;20063;-63
2023/04/17 14:10:13;;;;;;;17.45;14.60;;;25.40;1.00;;;;;;5063313;28;20024;-63
2023/04/17 14:12:39;;;;;;;17.30;14.57;;;25.40;99.90;;;;;;5079895;28;20128;-63
2023/04/17 14:15:06;;;;;;;16.40;14.63;;;27.50;99.90;;;;;;5062638;28;20036;-65
2023/04/17 14:17:33;;;;;;;16.88;13.82;;;26.80;1.00;;;;;;5079807;28;20047;-64
2023/04/17 14:19:59;;;;;;;16.63;14.02;;;25.90;10.40;;;;;;5062388;28;20358;-64
2023/04/17 14:22:24;;;;;;;15.85;14.15;;;24.50;99.90;;;;;;5062183;28;20037;-64
2023/04/17 14:24:50;;;;;;;17.02;14.75;;;23.50;99.90;;;;;;5045621;28;20420;-65
2023/04/17 14:27:16;;;;;;;18.00;14.60;;;21.60;1.00;;;;;;5045905;28;20036;-65
2023/04/17 14:29:42;;;;;;;17.90;15.68;;;21.40;1.00;;;;;;5029134;28;20070;-65
2023/04/17 14:32:08;;;;;;;17.35;14.52;;;21.40;1.00;;;;;;5079509;28;20282;-65
2023/04/17 14:34:33;;;;;;;17.95;14.88;;;21.80;1.00;;;;;;5045760;28;20120;-66
2023/04/17 14:36:59;;;;;;;18.20;15.35;;;23.50;99.90;;;;;;5062208;28;20041;-65
2023/04/17 14:39:25;;;;;;;15.23;13.27;;;25.10;1.00;;;;;;5079482;28;20033;-65
2023/04/17 14:41:51;;;;;;;14.32;12.82;;;25.60;99.90;;;;;;5062087;28;20124;-66
2023/04/17 14:44:17;;;;;;;17.60;15.30;;;26.90;97.90;;;;;;5062728;28;20289;-66
2023/04/17 14:46:43;;;;;;;17.00;14.07;;;26.70;1.00;;;;;;5045480;28;20090;-63
2023/04/17 14:49:08;;;;;;;16.60;14.27;;;24.70;1.00;;;;;;5062033;28;20021;-63
2023/04/17 14:51:34;;;;;;;16.52;14.52;;;22.80;99.90;;;;;;5061848;28;20114;-64
2023/04/17 14:54:00;;;;;;;20.60;15.50;;;21.10;1.00;;;;;;5079147;28;20071;-67
2023/04/17 14:56:26;;;;;;;18.17;14.35;;;21.50;63.30;;;;;;5061691;28;20136;-65
2023/04/17 14:58:52;;;;;;;17.88;15.18;;;22.80;1.00;;;;;;5045514;28;20031;-66
2023/04/17 15:01:17;;;;;;;17.83;15.63;;;24.60;99.90;;;;;;5045058;28;20068;-66
2023/04/17 15:03:43;;;;;;;20.15;15.38;;;26.60;99.90;;;;;;5079074;28;20064;-65
2023/04/17 15:06:09;;;;;;;17.40;14.75;;;26.90;1.00;;;;;;5079066;28;20024;-64